Time;durP1;ratioP1;P1;durP2;ratioP2;P2;SDS_P1;SDS_P2;PMS_P1;PMS_P2;Temp;Humidity;BMP_temperature;BMP_pressure;BME280_temperature;BME280_humidity;BME280_pressure;Samples;Min_cycle;Max_cycle;Signal;HPM_P1;HPM_P2
2023/06/11 00:01:08;;;;;;;11.13;10.00;;;21.80;94.90;;;;;;5037188;28;20542;-73
2023/06/11 00:03:36;;;;;;;11.70;10.50;;;21.80;95.00;;;;;;5037246;28;20423;-74
2023/06/11 00:06:05;;;;;;;12.10;10.90;;;21.80;95.10;;;;;;5036812;28;20439;-74
2023/06/11 00:08:33;;;;;;;12.00;10.80;;;21.70;95.20;;;;;;5036809;28;20494;-73
2023/06/11 00:11:01;;;;;;;12.00;10.80;;;21.70;95.30;;;;;;5036757;28;20534;-74
2023/06/11 00:13:30;;;;;;;11.90;10.90;;;21.70;95.40;;;;;;5037357;28;20435;-74
2023/06/11 00:16:00;;;;;;;11.20;10.20;;;21.70;95.50;;;;;;5037118;28;20435;-73
2023/06/11 00:18:28;;;;;;;12.17;10.97;;;21.70;95.60;;;;;;5037300;28;20543;-73
2023/06/11 00:20:58;;;;;;;12.00;10.90;;;21.60;95.60;;;;;;5036881;28;21045;-74
2023/06/11 00:23:26;;;;;;;11.10;10.10;;;21.60;95.70;;;;;;5036970;28;20438;-74
2023/06/11 00:25:54;;;;;;;12.90;10.27;;;21.60;95.80;;;;;;5037171;28;20481;-74
2023/06/11 00:28:22;;;;;;;12.03;10.93;;;21.60;95.90;;;;;;5037007;28;20459;-71
2023/06/11 00:30:50;;;;;;;11.33;10.23;;;21.60;96.00;;;;;;5036782;28;20434;-71
2023/06/11 00:33:20;;;;;;;13.47;11.23;;;21.60;96.10;;;;;;5036472;28;20439;-71
2023/06/11 00:35:49;;;;;;;11.47;10.30;;;21.50;96.20;;;;;;5035393;28;20534;-71
2023/06/11 00:38:17;;;;;;;12.20;11.00;;;21.50;96.30;;;;;;5034443;28;20866;-71
2023/06/11 00:40:48;;;;;;;9.40;8.40;;;21.50;96.40;;;;;;5034322;28;20471;-70
2023/06/11 00:43:21;;;;;;;10.77;9.77;;;21.50;96.40;;;;;;5035522;28;20481;-72
2023/06/11 00:45:50;;;;;;;12.17;10.83;;;21.50;96.50;;;;;;5034443;28;20443;-71
2023/06/11 00:48:21;;;;;;;11.67;10.47;;;21.50;96.60;;;;;;5034209;28;20470;-71
2023/06/11 00:50:50;;;;;;;12.17;10.97;;;21.40;96.60;;;;;;5034161;28;20462;-70
2023/06/11 00:53:21;;;;;;;12.47;10.80;;;21.40;96.70;;;;;;5034098;28;20435;-72
2023/06/11 00:55:49;;;;;;;11.80;10.60;;;21.40;96.80;;;;;;5034244;28;20490;-71
2023/06/11 00:58:20;;;;;;;10.43;9.43;;;21.40;96.90;;;;;;5035423;28;20466;-71
2023/06/11 01:00:51;;;;;;;10.07;8.97;;;21.30;96.90;;;;;;5034247;28;20478;-71
2023/06/11 01:03:26;;;;;;;10.53;9.43;;;21.30;97.00;;;;;;5035503;28;20514;-71
2023/06/11 01:06:01;;;;;;;12.20;10.00;;;21.30;97.00;;;;;;5035928;28;20485;-71
2023/06/11 01:08:33;;;;;;;11.13;9.23;;;21.30;97.10;;;;;;5035937;28;20485;-71
2023/06/11 01:11:02;;;;;;;10.60;9.50;;;21.30;97.10;;;;;;5035159;28;20854;-71
2023/06/11 01:13:36;;;;;;;11.97;10.57;;;21.20;97.10;;;;;;5034303;28;20534;-73
2023/06/11 01:16:11;;;;;;;8.77;7.87;;;21.20;97.20;;;;;;5034228;28;20497;-74
2023/06/11 01:18:47;;;;;;;9.60;7.83;;;21.20;97.20;;;;;;5035709;28;20838;-73
2023/06/11 01:21:21;;;;;;;11.47;9.10;;;21.10;97.20;;;;;;5033770;28;20467;-73
2023/06/11 01:24:03;;;;;;;11.47;8.20;;;21.10;97.20;;;;;;5034965;28;20913;-73
2023/06/11 01:26:44;;;;;;;10.40;8.50;;;21.10;97.20;;;;;;5033578;28;20443;-73
2023/06/11 01:29:16;;;;;;;8.90;8.00;;;21.00;97.20;;;;;;5033154;28;20455;-73
2023/06/11 01:31:45;;;;;;;9.50;8.07;;;21.00;97.20;;;;;;5033482;28;20442;-74
2023/06/11 01:34:17;;;;;;;10.50;8.37;;;21.00;97.20;;;;;;5039002;28;20534;-74
2023/06/11 01:36:46;;;;;;;10.10;8.17;;;20.90;97.20;;;;;;5041505;28;20462;-74
2023/06/11 01:39:15;;;;;;;10.30;7.77;;;20.90;97.20;;;;;;5034015;28;20859;-73
2023/06/11 01:41:57;;;;;;;11.30;7.90;;;20.90;97.50;;;;;;5033758;28;20430;-71
2023/06/11 01:44:28;;;;;;;12.70;7.87;;;20.90;97.20;;;;;;5034466;28;20537;-71
2023/06/11 01:46:57;;;;;;;9.70;8.03;;;20.90;97.20;;;;;;5034872;28;20528;-71
2023/06/11 01:49:27;;;;;;;9.37;7.33;;;20.90;97.20;;;;;;5037507;28;20451;-71
2023/06/11 01:51:56;;;;;;;8.67;7.77;;;20.80;97.10;;;;;;5038246;28;20455;-72
2023/06/11 01:54:25;;;;;;;9.10;7.30;;;20.80;97.00;;;;;;5039894;28;20524;-71
2023/06/11 01:56:56;;;;;;;11.00;7.93;;;20.80;97.00;;;;;;5046559;28;20459;-71
2023/06/11 01:59:27;;;;;;;8.50;6.50;;;20.70;96.90;;;;;;5047270;28;20482;-72
2023/06/11 02:02:02;;;;;;;6.93;6.17;;;20.70;96.80;;;;;;5048261;28;20477;-71
2023/06/11 02:04:37;;;;;;;11.00;6.83;;;20.70;96.70;;;;;;5047886;28;20487;-72
2023/06/11 02:07:13;;;;;;;8.70;6.63;;;20.70;96.60;;;;;;5048033;28;20489;-72
2023/06/11 02:09:46;;;;;;;8.80;6.60;;;20.60;96.50;;;;;;5048477;28;20458;-71
2023/06/11 02:12:19;;;;;;;8.70;6.10;;;20.60;96.30;;;;;;5047259;28;20446;-72
2023/06/11 02:14:54;;;;;;;8.10;5.87;;;20.60;96.20;;;;;;5047588;28;20443;-71
2023/06/11 02:17:30;;;;;;;9.20;6.03;;;20.50;96.00;;;;;;5047014;28;20466;-71
2023/06/11 02:20:05;;;;;;;8.37;6.37;;;20.50;95.90;;;;;;5047219;28;20446;-71
2023/06/11 02:22:44;;;;;;;10.57;6.80;;;20.50;95.80;;;;;;5047966;28;20498;-72
2023/06/11 02:25:17;;;;;;;11.40;6.00;;;20.50;95.70;;;;;;5050095;28;20419;-72
2023/06/11 02:27:52;;;;;;;9.60;6.10;;;20.40;95.60;;;;;;5047100;28;20549;-72
2023/06/11 02:30:25;;;;;;;8.27;6.07;;;20.40;95.50;;;;;;5046659;28;20450;-72
2023/06/11 02:32:58;;;;;;;9.73;6.63;;;20.30;95.40;;;;;;5048127;28;20435;-73
2023/06/11 02:35:30;;;;;;;8.00;6.00;;;20.30;95.30;;;;;;5041812;28;20450;-73
2023/06/11 02:37:58;;;;;;;6.97;5.70;;;20.20;95.10;;;;;;5035174;28;20562;-73
2023/06/11 02:40:28;;;;;;;8.90;5.80;;;20.20;95.10;;;;;;5037719;28;20487;-73
2023/06/11 02:42:56;;;;;;;7.67;6.03;;;20.20;95.00;;;;;;5039288;28;20435;-74
2023/06/11 02:45:31;;;;;;;11.20;5.50;;;20.10;94.80;;;;;;5045334;28;21099;-74
2023/06/11 02:48:03;;;;;;;9.47;5.60;;;20.10;94.70;;;;;;5049824;28;20492;-71
2023/06/11 02:50:36;;;;;;;8.77;5.47;;;20.10;94.70;;;;;;5048695;28;20420;-71
2023/06/11 02:53:11;;;;;;;9.20;5.70;;;20.00;94.50;;;;;;5047443;28;20458;-71
2023/06/11 02:55:45;;;;;;;7.60;5.30;;;20.00;94.50;;;;;;5050030;28;20450;-71
2023/06/11 02:58:19;;;;;;;7.93;5.90;;;19.90;94.30;;;;;;5048389;28;20999;-71
2023/06/11 03:00:51;;;;;;;9.30;5.60;;;19.90;94.30;;;;;;5049253;28;20463;-71
2023/06/11 03:03:24;;;;;;;10.43;6.17;;;19.80;94.20;;;;;;5046983;28;20514;-71
2023/06/11 03:05:55;;;;;;;8.30;5.63;;;19.80;94.10;;;;;;5037477;28;20908;-73
2023/06/11 03:08:27;;;;;;;9.63;5.67;;;19.70;94.00;;;;;;5035444;28;20983;-72
2023/06/11 03:10:55;;;;;;;9.53;5.97;;;19.70;94.00;;;;;;5032769;28;20506;-72
2023/06/11 03:13:23;;;;;;;7.40;5.53;;;19.60;93.90;;;;;;5034256;28;20932;-72
2023/06/11 03:15:55;;;;;;;8.60;6.03;;;19.60;93.90;;;;;;5033851;28;20465;-72
2023/06/11 03:18:25;;;;;;;10.00;5.87;;;19.60;93.80;;;;;;5036602;28;20474;-72
2023/06/11 03:20:53;;;;;;;7.97;5.50;;;19.50;93.80;;;;;;5036326;28;21065;-71
2023/06/11 03:23:21;;;;;;;8.53;6.00;;;19.50;93.80;;;;;;5035956;28;20451;-72
2023/06/11 03:25:49;;;;;;;10.93;6.13;;;19.50;93.70;;;;;;5036053;28;20470;-72
2023/06/11 03:28:18;;;;;;;7.83;5.37;;;19.40;93.60;;;;;;5036047;28;20513;-71
2023/06/11 03:30:46;;;;;;;7.83;5.90;;;19.40;93.60;;;;;;5035862;28;20542;-71
2023/06/11 03:33:16;;;;;;;7.37;5.50;;;19.40;93.60;;;;;;5036089;28;20446;-72
2023/06/11 03:35:44;;;;;;;9.17;5.87;;;19.40;93.60;;;;;;5036204;28;20455;-72
2023/06/11 03:38:22;;;;;;;13.60;6.87;;;19.30;93.60;;;;;;5036094;28;20482;-72
2023/06/11 03:40:52;;;;;;;8.87;5.73;;;19.30;93.60;;;;;;5035671;28;20474;-72
2023/06/11 03:43:24;;;;;;;9.17;5.60;;;19.30;93.60;;;;;;5035084;28;20493;-72
2023/06/11 03:45:52;;;;;;;11.83;5.83;;;19.20;93.60;;;;;;5035401;28;20483;-71
2023/06/11 03:48:22;;;;;;;10.50;6.47;;;19.20;93.60;;;;;;5035236;28;20466;-71
2023/06/11 03:50:50;;;;;;;8.33;5.90;;;19.20;93.60;;;;;;5035313;28;20446;-72
2023/06/11 03:53:20;;;;;;;7.53;5.50;;;19.20;93.60;;;;;;5035404;28;20842;-71
2023/06/11 03:55:48;;;;;;;7.33;5.67;;;19.10;93.50;;;;;;5036960;28;20443;-72
2023/06/11 03:58:16;;;;;;;8.70;5.63;;;19.10;93.50;;;;;;5035201;28;20475;-72
2023/06/11 04:00:44;;;;;;;7.50;5.90;;;19.00;93.50;;;;;;5035185;28;20447;-72
2023/06/11 04:03:12;;;;;;;9.33;6.60;;;19.00;93.50;;;;;;5035865;28;20827;-72
2023/06/11 04:05:43;;;;;;;8.50;5.60;;;19.00;93.50;;;;;;5035530;28;20530;-72
2023/06/11 04:08:11;;;;;;;7.00;5.27;;;18.90;93.50;;;;;;5035247;28;20478;-72
2023/06/11 04:10:41;;;;;;;12.13;6.00;;;18.90;93.50;;;;;;5035694;28;20531;-72
2023/06/11 04:13:09;;;;;;;8.80;5.00;;;18.90;93.50;;;;;;5036528;28;20439;-72
2023/06/11 04:15:37;;;;;;;8.87;5.53;;;18.80;93.50;;;;;;5035330;28;20446;-72
2023/06/11 04:18:11;;;;;;;7.90;5.10;;;18.80;93.50;;;;;;5035081;28;20510;-73
2023/06/11 04:20:39;;;;;;;5.93;4.33;;;18.80;93.40;;;;;;5035057;28;20446;-72
2023/06/11 04:23:10;;;;;;;8.23;5.30;;;18.80;93.40;;;;;;5036349;28;20471;-72
2023/06/11 04:25:39;;;;;;;6.70;4.90;;;18.70;93.40;;;;;;5036324;28;20447;-72
2023/06/11 04:28:09;;;;;;;6.47;4.40;;;18.70;93.40;;;;;;5034480;28;20832;-72
2023/06/11 04:30:39;;;;;;;7.53;4.87;;;18.70;93.40;;;;;;5035108;28;20439;-72
2023/06/11 04:33:08;;;;;;;9.60;5.30;;;18.70;93.40;;;;;;5034755;28;20435;-72
2023/06/11 04:35:37;;;;;;;7.57;4.97;;;18.70;93.40;;;;;;5034727;28;20454;-72
2023/06/11 04:38:05;;;;;;;8.47;4.77;;;18.70;93.40;;;;;;5036260;28;20494;-72
2023/06/11 04:40:38;;;;;;;7.30;4.70;;;18.70;93.40;;;;;;5034981;28;20442;-72
2023/06/11 04:43:07;;;;;;;8.73;4.23;;;18.60;93.30;;;;;;5034699;28;20462;-72
2023/06/11 04:45:38;;;;;;;7.77;4.70;;;18.60;93.30;;;;;;5034775;28;20537;-72
2023/06/11 04:48:09;;;;;;;6.80;4.63;;;18.60;93.30;;;;;;5035121;28;20475;-71
2023/06/11 04:50:38;;;;;;;8.47;4.30;;;18.60;93.30;;;;;;5034975;28;20813;-72
2023/06/11 04:53:12;;;;;;;8.57;4.90;;;18.60;93.40;;;;;;5035005;28;20458;-72
2023/06/11 04:55:42;;;;;;;6.27;4.33;;;18.60;93.40;;;;;;5034912;28;20446;-72
2023/06/11 04:58:10;;;;;;;6.50;4.70;;;18.60;93.40;;;;;;5034598;28;20995;-72
2023/06/11 05:00:39;;;;;;;7.70;4.50;;;18.60;93.30;;;;;;5034489;28;20545;-71
2023/06/11 05:03:09;;;;;;;9.43;4.50;;;18.60;93.30;;;;;;5035790;28;20466;-72
2023/06/11 05:05:39;;;;;;;9.43;4.63;;;18.60;93.40;;;;;;5034575;28;20451;-72
2023/06/11 05:08:07;;;;;;;6.40;4.50;;;18.60;93.40;;;;;;5034592;28;20536;-72
2023/06/11 05:10:37;;;;;;;7.73;4.50;;;18.60;93.40;;;;;;5034187;28;20446;-72
2023/06/11 05:13:07;;;;;;;6.53;4.60;;;18.60;93.40;;;;;;5034989;28;20485;-72
2023/06/11 05:15:35;;;;;;;8.50;3.87;;;18.60;93.40;;;;;;5034195;28;20537;-72
2023/06/11 05:18:04;;;;;;;6.30;4.33;;;18.60;93.40;;;;;;5033926;28;20517;-72
2023/06/11 05:20:33;;;;;;;6.60;4.50;;;18.60;93.40;;;;;;5033622;28;20485;-72
2023/06/11 05:23:03;;;;;;;6.60;4.30;;;18.70;93.50;;;;;;5033943;28;20497;-72
2023/06/11 05:25:35;;;;;;;8.20;5.00;;;18.70;93.40;;;;;;5033754;28;20856;-72
2023/06/11 05:28:09;;;;;;;6.13;4.80;;;18.70;93.40;;;;;;5033681;28;21052;-72
2023/06/11 05:30:38;;;;;;;10.53;5.40;;;18.70;93.40;;;;;;5033312;28;20489;-72
2023/06/11 05:33:08;;;;;;;7.70;4.47;;;18.80;93.40;;;;;;5034166;28;20439;-72
2023/06/11 05:35:36;;;;;;;6.20;4.33;;;18.80;93.40;;;;;;5033033;28;20478;-73
2023/06/11 05:38:06;;;;;;;7.60;4.70;;;18.90;93.40;;;;;;5034293;28;20829;-72
2023/06/11 05:40:35;;;;;;;9.03;4.40;;;19.00;93.70;;;;;;5033141;28;20972;-71
2023/06/11 05:43:04;;;;;;;9.50;4.40;;;19.10;93.70;;;;;;5032842;28;20844;-72
2023/06/11 05:45:34;;;;;;;9.03;4.50;;;19.30;93.50;;;;;;5033003;28;20442;-72
2023/06/11 05:48:05;;;;;;;8.87;4.60;;;19.40;93.50;;;;;;5033164;28;20463;-72
2023/06/11 05:50:36;;;;;;;8.77;4.47;;;19.60;93.40;;;;;;5033099;28;20450;-72
2023/06/11 05:53:04;;;;;;;8.53;4.60;;;19.70;93.30;;;;;;5033408;28;20936;-72
2023/06/11 05:55:32;;;;;;;8.57;5.20;;;19.90;93.30;;;;;;5034700;28;20430;-73
2023/06/11 05:58:00;;;;;;;7.20;5.20;;;20.10;93.30;;;;;;5034455;28;20509;-73
2023/06/11 06:00:29;;;;;;;6.60;4.57;;;20.20;93.10;;;;;;5033420;28;20960;-72
2023/06/11 06:02:58;;;;;;;7.40;4.77;;;20.40;93.10;;;;;;5032926;28;20557;-72
2023/06/11 06:05:29;;;;;;;13.10;4.37;;;20.60;93.20;;;;;;5034185;28;20434;-72
2023/06/11 06:07:57;;;;;;;9.10;5.30;;;20.80;93.20;;;;;;5033251;28;20475;-73
2023/06/11 06:10:26;;;;;;;8.80;4.80;;;20.90;92.90;;;;;;5033844;28;20453;-73
2023/06/11 06:12:54;;;;;;;8.63;5.43;;;21.10;92.80;;;;;;5032877;28;20447;-73
2023/06/11 06:15:23;;;;;;;5.93;4.80;;;21.20;92.90;;;;;;5032882;28;20505;-73
2023/06/11 06:17:51;;;;;;;9.67;5.63;;;21.40;92.80;;;;;;5033352;28;20477;-72
2023/06/11 06:20:28;;;;;;;12.13;5.87;;;21.50;92.70;;;;;;5033742;28;20450;-73
2023/06/11 06:22:56;;;;;;;9.00;5.30;;;21.60;92.70;;;;;;5033384;28;20463;-73
2023/06/11 06:25:25;;;;;;;8.73;5.33;;;21.80;92.70;;;;;;5033167;28;20451;-72
2023/06/11 06:27:55;;;;;;;7.70;5.20;;;21.90;92.70;;;;;;5033464;28;20474;-72
2023/06/11 06:30:23;;;;;;;8.90;5.43;;;22.10;92.70;;;;;;5033851;28;20453;-72
2023/06/11 06:32:51;;;;;;;7.33;4.80;;;22.20;92.60;;;;;;5034162;28;20847;-72
2023/06/11 06:35:22;;;;;;;7.73;5.20;;;22.30;92.60;;;;;;5033781;28;20798;-72
2023/06/11 06:37:52;;;;;;;7.63;5.40;;;22.40;92.60;;;;;;5034250;28;20467;-72
2023/06/11 06:40:20;;;;;;;8.43;5.93;;;22.60;92.60;;;;;;5035538;28;20446;-72
2023/06/11 06:42:48;;;;;;;7.77;5.90;;;22.70;92.50;;;;;;5034589;28;20470;-73
2023/06/11 06:45:21;;;;;;;8.53;5.50;;;22.80;92.40;;;;;;5034628;28;20457;-72
2023/06/11 06:47:50;;;;;;;7.43;5.90;;;22.90;92.40;;;;;;5034158;28;20539;-72
2023/06/11 06:50:19;;;;;;;9.60;5.70;;;23.00;92.40;;;;;;5034408;28;20987;-72
2023/06/11 06:52:47;;;;;;;10.13;5.70;;;23.10;92.30;;;;;;5038534;28;20489;-72
2023/06/11 06:55:16;;;;;;;8.80;6.50;;;23.30;92.30;;;;;;5037878;28;20443;-73
2023/06/11 06:57:45;;;;;;;8.90;6.60;;;23.30;92.20;;;;;;5037627;28;20471;-72
2023/06/11 07:00:16;;;;;;;11.67;9.57;;;23.40;92.00;;;;;;5038670;28;20812;-72
2023/06/11 07:02:45;;;;;;;10.37;7.70;;;23.50;91.90;;;;;;5038039;28;20471;-72
2023/06/11 07:05:14;;;;;;;8.43;5.90;;;23.50;92.00;;;;;;5038162;28;20447;-72
2023/06/11 07:07:42;;;;;;;8.53;6.90;;;23.70;92.00;;;;;;5038157;28;20467;-72
2023/06/11 07:10:12;;;;;;;10.97;7.27;;;23.80;92.00;;;;;;5039608;28;20447;-73
2023/06/11 07:12:42;;;;;;;9.80;7.20;;;23.80;91.90;;;;;;5038675;28;20451;-72
2023/06/11 07:15:11;;;;;;;11.63;7.67;;;23.90;91.70;;;;;;5038907;28;20473;-73
2023/06/11 07:17:39;;;;;;;8.37;6.40;;;24.00;91.70;;;;;;5038757;28;20475;-71
2023/06/11 07:20:09;;;;;;;14.40;7.03;;;24.00;91.80;;;;;;5038965;28;20442;-73
2023/06/11 07:22:37;;;;;;;15.63;10.60;;;24.10;92.10;;;;;;5039522;28;20453;-72
2023/06/11 07:25:08;;;;;;;12.43;7.53;;;24.20;92.00;;;;;;5040381;28;20439;-72
2023/06/11 07:27:36;;;;;;;10.30;7.73;;;24.30;91.80;;;;;;5039761;28;20498;-73
2023/06/11 07:30:08;;;;;;;11.13;8.70;;;24.40;91.70;;;;;;5039450;28;20459;-72
2023/06/11 07:32:37;;;;;;;10.60;8.50;;;24.50;91.60;;;;;;5039129;28;20447;-74
2023/06/11 07:35:06;;;;;;;10.80;8.60;;;24.50;91.60;;;;;;5038087;28;20451;-73
2023/06/11 07:37:35;;;;;;;10.83;8.90;;;24.60;91.70;;;;;;5039038;28;20474;-73
2023/06/11 07:40:05;;;;;;;12.40;8.07;;;24.70;91.80;;;;;;5038404;28;20454;-72
2023/06/11 07:42:33;;;;;;;15.40;11.73;;;24.70;91.80;;;;;;5038453;28;20431;-72
2023/06/11 07:45:02;;;;;;;8.87;7.90;;;24.80;91.70;;;;;;5038041;28;20477;-73
2023/06/11 07:47:31;;;;;;;10.20;7.57;;;24.90;91.70;;;;;;5038398;28;20463;-73
2023/06/11 07:50:00;;;;;;;9.43;8.10;;;24.90;91.50;;;;;;5039947;28;20498;-73
2023/06/11 07:52:28;;;;;;;10.30;7.80;;;25.00;91.50;;;;;;5037412;28;20542;-72
2023/06/11 07:55:05;;;;;;;9.33;7.83;;;25.00;91.40;;;;;;5038446;28;20451;-73
2023/06/11 07:57:34;;;;;;;9.07;7.67;;;25.10;91.30;;;;;;5037388;28;20498;-72
2023/06/11 08:00:03;;;;;;;9.23;7.33;;;25.10;91.30;;;;;;5038562;28;20854;-73
2023/06/11 08:02:41;;;;;;;8.93;8.03;;;25.10;91.30;;;;;;5037162;28;20425;-72
2023/06/11 08:05:11;;;;;;;8.70;7.90;;;25.20;91.30;;;;;;5038796;28;20562;-72
2023/06/11 08:07:39;;;;;;;11.93;7.77;;;25.30;91.20;;;;;;5036508;28;20469;-72
2023/06/11 08:10:08;;;;;;;10.20;7.50;;;25.30;91.20;;;;;;5038150;28;20881;-72
2023/06/11 08:12:37;;;;;;;9.53;7.30;;;25.40;91.30;;;;;;5037786;28;20439;-71
2023/06/11 08:15:06;;;;;;;10.83;7.57;;;25.40;91.30;;;;;;5037717;28;20437;-71
2023/06/11 08:17:34;;;;;;;10.90;8.40;;;25.50;91.20;;;;;;5037494;28;20509;-72
2023/06/11 08:20:07;;;;;;;8.97;7.60;;;25.60;91.30;;;;;;5037809;28;20443;-72
2023/06/11 08:22:36;;;;;;;8.97;8.17;;;25.70;91.30;;;;;;5038189;28;20458;-72
2023/06/11 08:25:04;;;;;;;10.00;7.50;;;25.80;91.20;;;;;;5037976;28;20506;-72
2023/06/11 08:27:32;;;;;;;8.73;7.50;;;25.80;91.20;;;;;;5037241;28;20486;-72
2023/06/11 08:30:00;;;;;;;13.20;8.53;;;25.90;91.30;;;;;;5037577;28;20487;-72
2023/06/11 08:32:29;;;;;;;8.87;7.97;;;26.00;91.20;;;;;;5038965;28;20438;-73
2023/06/11 08:34:57;;;;;;;8.93;8.07;;;26.00;91.10;;;;;;5040109;28;20936;-73
2023/06/11 08:37:27;;;;;;;9.27;7.70;;;26.10;90.90;;;;;;5037834;28;20458;-72
2023/06/11 08:39:55;;;;;;;10.60;8.70;;;26.10;90.90;;;;;;5036695;28;20549;-72
2023/06/11 08:42:23;;;;;;;9.10;7.77;;;26.20;90.80;;;;;;5037336;28;20822;-72
2023/06/11 08:44:52;;;;;;;10.40;8.43;;;26.20;90.50;;;;;;5037885;28;20873;-72
2023/06/11 08:47:21;;;;;;;10.93;8.17;;;26.20;90.40;;;;;;5038212;28;20463;-73
2023/06/11 08:49:52;;;;;;;9.57;8.13;;;26.20;90.40;;;;;;5038234;28;20881;-72
2023/06/11 08:52:23;;;;;;;9.27;8.37;;;26.20;90.30;;;;;;5039489;28;20458;-74
2023/06/11 08:54:53;;;;;;;9.20;8.17;;;26.20;90.40;;;;;;5037943;28;20440;-74
2023/06/11 08:57:21;;;;;;;10.13;8.83;;;26.30;90.30;;;;;;5041606;28;20455;-73
2023/06/11 08:59:50;;;;;;;9.37;8.40;;;26.30;90.20;;;;;;5040789;28;20940;-73
2023/06/11 09:02:18;;;;;;;11.60;9.00;;;26.30;90.50;;;;;;5039724;28;20441;-73
2023/06/11 09:04:46;;;;;;;11.90;9.30;;;26.40;90.30;;;;;;5038907;28;20471;-73
2023/06/11 09:07:24;;;;;;;15.80;14.10;;;26.50;90.60;;;;;;5040042;28;20586;-72
2023/06/11 09:10:09;;;;;;;11.37;9.17;;;26.50;90.20;;;;;;5039504;28;20423;-72
2023/06/11 09:12:38;;;;;;;9.67;8.77;;;26.60;89.80;;;;;;5038983;28;20419;-72
2023/06/11 09:15:07;;;;;;;11.53;9.23;;;26.60;89.80;;;;;;5039064;28;20474;-73
2023/06/11 09:17:35;;;;;;;9.67;8.77;;;26.70;89.70;;;;;;5038153;28;20455;-73
2023/06/11 09:20:06;;;;;;;9.03;8.13;;;26.70;89.40;;;;;;5039534;28;20462;-72
2023/06/11 09:22:36;;;;;;;10.00;8.50;;;26.70;88.90;;;;;;5038663;28;20415;-72
2023/06/11 09:25:09;;;;;;;9.13;8.23;;;26.70;88.80;;;;;;5038465;28;20467;-73
2023/06/11 09:27:39;;;;;;;12.20;8.37;;;26.80;88.90;;;;;;5039105;28;20501;-73
2023/06/11 09:30:10;;;;;;;8.90;8.00;;;26.80;89.10;;;;;;5036946;28;20457;-73
2023/06/11 09:32:39;;;;;;;9.80;8.70;;;26.90;89.10;;;;;;5043220;28;20526;-73
2023/06/11 09:35:09;;;;;;;10.60;9.10;;;26.90;89.80;;;;;;5041808;28;20450;-74
2023/06/11 09:37:43;;;;;;;9.17;8.27;;;27.00;89.30;;;;;;5037419;28;20542;-74
2023/06/11 09:40:16;;;;;;;9.17;7.93;;;27.10;89.10;;;;;;5038658;28;20424;-74
2023/06/11 09:42:45;;;;;;;9.57;8.30;;;27.10;88.90;;;;;;5039139;28;20462;-75
2023/06/11 09:45:17;;;;;;;9.47;8.57;;;27.20;88.90;;;;;;5039266;28;20509;-75
2023/06/11 09:47:46;;;;;;;11.43;8.33;;;27.20;88.70;;;;;;5037701;28;20458;-73
2023/06/11 09:50:16;;;;;;;10.03;8.30;;;27.30;88.40;;;;;;5037794;28;20939;-73
2023/06/11 09:52:46;;;;;;;9.80;8.60;;;27.30;88.00;;;;;;5037920;28;20423;-73
2023/06/11 09:55:15;;;;;;;8.23;7.43;;;27.30;87.60;;;;;;5037608;28;20443;-74
2023/06/11 09:57:44;;;;;;;10.13;9.10;;;27.40;87.40;;;;;;5037125;28;20462;-73
2023/06/11 10:00:13;;;;;;;10.10;8.93;;;27.40;87.40;;;;;;5036955;28;20504;-72
2023/06/11 10:02:44;;;;;;;9.63;8.47;;;27.40;87.30;;;;;;5034669;28;20500;-73
2023/06/11 10:05:13;;;;;;;9.40;8.50;;;27.50;87.50;;;;;;5034901;28;20479;-73
2023/06/11 10:07:45;;;;;;;9.20;8.30;;;27.50;87.10;;;;;;5034618;28;20463;-72
2023/06/11 10:10:22;;;;;;;9.93;8.20;;;27.60;86.90;;;;;;5033178;28;20439;-72
2023/06/11 10:12:51;;;;;;;9.97;8.23;;;27.60;86.80;;;;;;5034363;28;20427;-72
2023/06/11 10:15:21;;;;;;;9.40;8.07;;;27.60;86.70;;;;;;5032488;28;20927;-73
2023/06/11 10:17:51;;;;;;;12.30;9.77;;;27.70;86.50;;;;;;5034284;28;20450;-73
2023/06/11 10:20:21;;;;;;;10.13;8.60;;;27.70;86.40;;;;;;5034388;28;20435;-73
2023/06/11 10:22:49;;;;;;;9.40;8.50;;;27.70;86.20;;;;;;5034356;28;20770;-73
2023/06/11 10:25:19;;;;;;;10.03;8.40;;;27.70;86.40;;;;;;5033531;28;20558;-73
2023/06/11 10:27:48;;;;;;;11.13;8.70;;;27.70;86.10;;;;;;5034584;28;20501;-73
2023/06/11 10:30:24;;;;;;;8.93;8.00;;;27.80;86.20;;;;;;5034138;28;20454;-73
2023/06/11 10:32:53;;;;;;;10.30;8.23;;;27.80;86.60;;;;;;5034339;28;20425;-73
2023/06/11 10:35:23;;;;;;;9.60;8.60;;;27.90;85.80;;;;;;5034304;28;20434;-73
2023/06/11 10:38:01;;;;;;;10.40;9.07;;;27.90;85.40;;;;;;5034265;28;20446;-73
2023/06/11 10:40:36;;;;;;;8.83;7.90;;;27.90;85.10;;;;;;5034121;28;20511;-73
2023/06/11 10:43:15;;;;;;;10.60;8.70;;;27.90;85.20;;;;;;5032659;28;20445;-72
2023/06/11 10:45:43;;;;;;;10.60;8.67;;;28.00;85.30;;;;;;5034001;28;21014;-73
2023/06/11 10:48:27;;;;;;;8.83;7.80;;;28.00;85.10;;;;;;5034232;28;20813;-73
2023/06/11 10:51:00;;;;;;;13.30;8.70;;;28.00;84.90;;;;;;5034237;28;20437;-73
2023/06/11 10:53:37;;;;;;;10.17;8.83;;;28.10;84.90;;;;;;5033875;28;20477;-73
2023/06/11 10:56:07;;;;;;;9.77;8.80;;;28.10;84.40;;;;;;5033656;28;20415;-73
2023/06/11 10:58:36;;;;;;;9.50;8.53;;;28.10;84.20;;;;;;5033867;28;20508;-73
2023/06/11 11:01:06;;;;;;;11.73;9.73;;;28.20;84.30;;;;;;5033615;28;20862;-73
2023/06/11 11:03:35;;;;;;;11.00;10.00;;;28.20;83.90;;;;;;5033379;28;20415;-73
2023/06/11 11:06:04;;;;;;;10.37;8.80;;;28.20;83.70;;;;;;5033461;28;20474;-73
2023/06/11 11:08:32;;;;;;;8.90;8.10;;;28.30;83.60;;;;;;5033185;28;20951;-73
2023/06/11 11:11:00;;;;;;;10.37;8.40;;;28.40;83.80;;;;;;5032042;28;20968;-73
2023/06/11 11:13:31;;;;;;;12.27;8.20;;;28.50;83.90;;;;;;5033497;28;20439;-73
2023/06/11 11:16:03;;;;;;;9.27;7.60;;;28.60;83.60;;;;;;5033334;28;20430;-73
2023/06/11 11:18:31;;;;;;;9.07;8.07;;;28.70;83.00;;;;;;5033362;28;20458;-73
2023/06/11 11:21:00;;;;;;;8.93;8.00;;;28.70;82.10;;;;;;5033549;28;20529;-73
2023/06/11 11:23:31;;;;;;;9.10;8.20;;;28.80;81.90;;;;;;5033691;28;20441;-73
2023/06/11 11:26:00;;;;;;;9.67;7.80;;;28.80;81.60;;;;;;5032846;28;20459;-73
2023/06/11 11:28:32;;;;;;;8.77;7.40;;;28.80;81.50;;;;;;5031328;28;20499;-73
2023/06/11 11:31:03;;;;;;;9.37;8.20;;;28.90;81.20;;;;;;5033270;28;20773;-73
2023/06/11 11:33:34;;;;;;;10.23;7.60;;;28.90;81.40;;;;;;5033207;28;20435;-73
2023/06/11 11:36:04;;;;;;;9.20;8.20;;;29.00;81.40;;;;;;5032860;28;20416;-73
2023/06/11 11:38:36;;;;;;;8.70;7.63;;;29.10;81.20;;;;;;5036402;28;20454;-73
2023/06/11 11:41:07;;;;;;;8.57;7.00;;;29.10;79.90;;;;;;5037058;28;20914;-73
2023/06/11 11:43:41;;;;;;;8.53;7.67;;;29.10;79.30;;;;;;5036836;28;20462;-73
2023/06/11 11:46:17;;;;;;;10.30;7.70;;;29.10;79.10;;;;;;5034918;28;20463;-75
2023/06/11 11:48:45;;;;;;;9.40;8.30;;;29.10;78.80;;;;;;5036397;28;20968;-73
2023/06/11 11:51:15;;;;;;;11.00;7.20;;;29.10;78.40;;;;;;5035107;28;20459;-73
2023/06/11 11:53:43;;;;;;;7.60;6.80;;;29.20;78.30;;;;;;5036419;28;20850;-74
2023/06/11 11:56:13;;;;;;;9.20;7.50;;;29.20;77.90;;;;;;5036146;28;20441;-73
2023/06/11 11:58:44;;;;;;;9.07;6.80;;;29.20;77.30;;;;;;5036041;28;20465;-73
2023/06/11 12:01:21;;;;;;;8.70;7.80;;;29.30;77.00;;;;;;5036505;28;20423;-74
2023/06/11 12:03:57;;;;;;;8.40;7.10;;;29.40;76.20;;;;;;5036213;28;20529;-73
2023/06/11 12:06:26;;;;;;;7.97;6.50;;;29.40;75.80;;;;;;5034630;28;20976;-74
2023/06/11 12:08:54;;;;;;;7.93;6.97;;;29.40;75.80;;;;;;5035137;28;20446;-73
2023/06/11 12:11:23;;;;;;;7.83;6.77;;;29.40;75.50;;;;;;5036039;28;20442;-73
2023/06/11 12:13:52;;;;;;;12.47;7.10;;;29.40;75.50;;;;;;5036352;28;20485;-74
2023/06/11 12:16:23;;;;;;;10.10;7.30;;;29.50;75.70;;;;;;5036286;28;20430;-74
2023/06/11 12:18:53;;;;;;;8.73;7.47;;;29.50;75.10;;;;;;5036594;28;20423;-74
2023/06/11 12:21:34;;;;;;;8.50;7.47;;;29.50;74.20;;;;;;5035982;28;20935;-74
2023/06/11 12:24:02;;;;;;;9.17;7.70;;;29.50;74.10;;;;;;5036719;28;20443;-74
2023/06/11 12:26:31;;;;;;;10.53;7.30;;;29.50;73.70;;;;;;5036346;28;20972;-74
2023/06/11 12:29:01;;;;;;;7.87;7.10;;;29.50;73.80;;;;;;5035550;28;20888;-74
2023/06/11 12:31:30;;;;;;;8.33;7.30;;;29.50;73.90;;;;;;5035981;28;20427;-74
2023/06/11 12:33:58;;;;;;;13.60;12.20;;;29.50;73.70;;;;;;5035633;28;20431;-75
2023/06/11 12:36:26;;;;;;;9.60;6.70;;;29.60;73.70;;;;;;5035676;28;20530;-74
2023/06/11 12:38:54;;;;;;;9.77;7.60;;;29.70;73.30;;;;;;5036224;28;20842;-74
2023/06/11 12:41:22;;;;;;;9.20;7.60;;;29.70;72.60;;;;;;5035938;28;20819;-74
2023/06/11 12:43:51;;;;;;;8.53;7.03;;;29.70;71.70;;;;;;5035761;28;20477;-74
2023/06/11 12:46:20;;;;;;;7.40;6.70;;;29.70;71.50;;;;;;5034107;28;20478;-74
2023/06/11 12:48:48;;;;;;;8.67;7.03;;;29.70;71.70;;;;;;5035165;28;20928;-74
2023/06/11 12:51:16;;;;;;;8.90;7.00;;;29.70;71.70;;;;;;5034016;28;20453;-73
2023/06/11 12:53:44;;;;;;;8.00;6.77;;;29.80;71.50;;;;;;5034464;28;20542;-74
2023/06/11 12:56:13;;;;;;;8.53;6.57;;;29.90;70.70;;;;;;5035786;28;20475;-74
2023/06/11 12:58:45;;;;;;;8.40;6.73;;;29.90;70.00;;;;;;5035379;28;20470;-74